Time;durP1;ratioP1;P1;durP2;ratioP2;P2;SDS_P1;SDS_P2;PMS_P1;PMS_P2;Temp;Humidity;BMP_temperature;BMP_pressure;BME280_temperature;BME280_humidity;BME280_pressure;Samples;Min_cycle;Max_cycle;Signal;HPM_P1;HPM_P2
2022/07/17 00:02:06;;;;;;;4.25;1.40;;;14.90;98.40;;;;;;5105283;28;20036;-64
2022/07/17 00:04:31;;;;;;;6.40;1.70;;;14.90;98.60;;;;;;5107251;28;20109;-63
2022/07/17 00:06:57;;;;;;;5.40;1.67;;;14.80;98.80;;;;;;5104863;28;20147;-64
2022/07/17 00:09:22;;;;;;;5.20;1.60;;;14.80;98.90;;;;;;5103616;28;20442;-64
2022/07/17 00:11:48;;;;;;;4.53;1.70;;;14.80;99.10;;;;;;5102811;28;20104;-64
2022/07/17 00:14:14;;;;;;;5.68;1.70;;;14.70;99.30;;;;;;5104233;28;20050;-64
2022/07/17 00:16:39;;;;;;;5.35;1.63;;;14.70;99.50;;;;;;5106032;28;20139;-64
2022/07/17 00:19:06;;;;;;;5.80;1.50;;;14.70;99.70;;;;;;5107665;28;20114;-64
2022/07/17 00:21:32;;;;;;;6.82;1.80;;;14.60;99.90;;;;;;5105570;28;20126;-64
2022/07/17 00:23:58;;;;;;;3.65;1.40;;;14.60;99.90;;;;;;5106503;28;20423;-64
2022/07/17 00:26:23;;;;;;;6.63;1.80;;;14.60;99.90;;;;;;5105866;28;20115;-64
2022/07/17 00:28:49;;;;;;;6.15;2.28;;;14.50;99.90;;;;;;5108344;28;20036;-64
2022/07/17 00:31:15;;;;;;;4.93;1.60;;;14.50;99.90;;;;;;5107082;28;20041;-64
2022/07/17 00:33:41;;;;;;;8.90;2.22;;;14.50;99.90;;;;;;5107780;28;20156;-64
2022/07/17 00:36:07;;;;;;;4.13;1.50;;;14.50;99.90;;;;;;5106498;28;20506;-64
2022/07/17 00:38:32;;;;;;;6.32;2.00;;;14.40;99.90;;;;;;5107153;28;20040;-64
2022/07/17 00:40:58;;;;;;;4.35;1.70;;;14.40;99.90;;;;;;5102474;28;20043;-63
2022/07/17 00:43:25;;;;;;;8.02;1.80;;;14.40;99.90;;;;;;5108606;28;20039;-64
2022/07/17 00:45:57;;;;;;;5.78;1.80;;;14.40;99.90;;;;;;5107321;28;20054;-64
2022/07/17 00:48:23;;;;;;;5.45;1.90;;;14.30;99.90;;;;;;5104321;28;20044;-63
2022/07/17 00:50:49;;;;;;;5.13;1.83;;;14.30;99.90;;;;;;5108051;28;20123;-64
2022/07/17 00:53:14;;;;;;;5.72;1.75;;;14.30;99.90;;;;;;5107598;28;20039;-63
2022/07/17 00:55:41;;;;;;;6.68;1.40;;;14.20;99.90;;;;;;5106692;28;20040;-64
2022/07/17 00:58:08;;;;;;;3.08;1.40;;;14.30;99.90;;;;;;5106991;28;20088;-64
2022/07/17 01:00:35;;;;;;;5.70;1.80;;;14.20;99.90;;;;;;5105351;28;20104;-64
2022/07/17 01:03:01;;;;;;;3.90;1.70;;;14.20;99.90;;;;;;5105244;28;20037;-64
2022/07/17 01:05:26;;;;;;;4.72;1.73;;;14.20;99.90;;;;;;5107797;28;20497;-64
2022/07/17 01:07:52;;;;;;;4.22;1.52;;;14.20;99.90;;;;;;5107048;28;20135;-64
2022/07/17 01:10:18;;;;;;;3.95;1.30;;;14.10;99.90;;;;;;5104616;28;20043;-64
2022/07/17 01:12:46;;;;;;;3.42;1.58;;;14.10;99.90;;;;;;5096239;28;20052;-63
2022/07/17 01:15:12;;;;;;;4.85;1.80;;;14.10;99.90;;;;;;5099847;28;20048;-64
2022/07/17 01:17:38;;;;;;;5.50;1.50;;;14.00;99.90;;;;;;5106824;28;20047;-64
2022/07/17 01:20:07;;;;;;;3.63;1.60;;;14.00;99.90;;;;;;5106617;28;20040;-64
2022/07/17 01:22:39;;;;;;;4.38;2.00;;;14.00;99.90;;;;;;5105743;28;20079;-64
2022/07/17 01:25:06;;;;;;;5.28;1.92;;;13.90;99.90;;;;;;5106835;28;20031;-64
2022/07/17 01:27:31;;;;;;;4.93;1.60;;;13.90;99.90;;;;;;5107969;28;20639;-64
2022/07/17 01:29:57;;;;;;;4.50;1.88;;;13.90;99.90;;;;;;5102100;28;20047;-64
2022/07/17 01:32:34;;;;;;;3.55;1.73;;;13.90;99.90;;;;;;5106558;28;20032;-63
2022/07/17 01:35:01;;;;;;;4.28;1.80;;;13.80;99.90;;;;;;5106458;28;20097;-64
2022/07/17 01:37:27;;;;;;;5.13;1.85;;;13.80;99.90;;;;;;5110511;28;20320;-63
2022/07/17 01:39:53;;;;;;;6.43;2.10;;;13.80;99.90;;;;;;5111784;28;20050;-64
2022/07/17 01:42:19;;;;;;;5.25;1.70;;;13.80;99.90;;;;;;5106665;28;20043;-64
2022/07/17 01:44:44;;;;;;;3.95;1.60;;;13.80;99.90;;;;;;5108745;28;20362;-64
2022/07/17 01:47:13;;;;;;;3.35;1.40;;;13.80;99.90;;;;;;5108539;28;20031;-64
2022/07/17 01:49:45;;;;;;;3.90;1.75;;;13.70;99.90;;;;;;5109649;28;20394;-64
2022/07/17 01:52:11;;;;;;;3.40;1.85;;;13.70;99.90;;;;;;5101990;28;20418;-63
2022/07/17 01:54:36;;;;;;;4.70;1.70;;;13.70;99.90;;;;;;5111337;28;20063;-63
2022/07/17 01:57:02;;;;;;;5.00;1.60;;;13.70;99.90;;;;;;5110325;27;20501;-63
2022/07/17 01:59:27;;;;;;;3.67;1.58;;;13.70;99.90;;;;;;5109475;28;20040;-63
2022/07/17 02:01:53;;;;;;;2.85;1.50;;;13.60;99.90;;;;;;5105856;28;20050;-63
2022/07/17 02:04:18;;;;;;;3.30;1.60;;;13.60;99.90;;;;;;5110062;28;20047;-64
2022/07/17 02:06:44;;;;;;;2.17;1.30;;;13.60;99.90;;;;;;5108579;28;20507;-63
2022/07/17 02:09:09;;;;;;;3.45;1.45;;;13.50;99.90;;;;;;5121361;27;20044;-63
2022/07/17 02:11:35;;;;;;;4.05;1.70;;;13.50;99.90;;;;;;5107212;28;20044;-63
2022/07/17 02:14:00;;;;;;;3.63;1.40;;;13.50;99.90;;;;;;5110528;28;20054;-63
2022/07/17 02:16:26;;;;;;;2.97;1.60;;;13.50;99.90;;;;;;5106352;28;20122;-64
2022/07/17 02:18:52;;;;;;;3.25;1.70;;;13.40;99.90;;;;;;5111244;28;20051;-64
2022/07/17 02:21:17;;;;;;;4.53;2.00;;;13.40;99.90;;;;;;5109311;28;20467;-64
2022/07/17 02:23:43;;;;;;;2.63;1.58;;;13.40;99.90;;;;;;5110419;28;20052;-63
2022/07/17 02:26:09;;;;;;;3.88;1.63;;;13.40;99.90;;;;;;5108355;28;20043;-64
2022/07/17 02:28:35;;;;;;;4.20;1.83;;;13.30;99.90;;;;;;5104134;28;20094;-63
2022/07/17 02:31:00;;;;;;;3.53;1.70;;;13.30;99.90;;;;;;5106752;28;20490;-63
2022/07/17 02:33:26;;;;;;;4.38;1.90;;;13.30;99.90;;;;;;5107051;28;20316;-63
2022/07/17 02:35:51;;;;;;;3.83;1.70;;;13.30;99.90;;;;;;5109317;28;20046;-63
2022/07/17 02:38:17;;;;;;;2.92;1.70;;;13.20;99.90;;;;;;5106881;28;20047;-63
2022/07/17 02:40:42;;;;;;;3.80;1.77;;;13.20;99.90;;;;;;5108809;28;20035;-63
2022/07/17 02:43:08;;;;;;;4.35;1.90;;;13.20;99.90;;;;;;5105646;28;20118;-64
2022/07/17 02:45:34;;;;;;;3.85;1.83;;;13.20;99.90;;;;;;5108837;28;20042;-63
2022/07/17 02:47:59;;;;;;;3.83;2.08;;;13.10;99.90;;;;;;5109212;28;20047;-64
2022/07/17 02:50:25;;;;;;;3.50;1.80;;;13.10;99.90;;;;;;5105597;28;20422;-63
2022/07/17 02:52:50;;;;;;;5.00;1.90;;;13.00;99.90;;;;;;5105120;28;20043;-63
2022/07/17 02:55:17;;;;;;;3.47;1.90;;;13.00;99.90;;;;;;5108580;28;20043;-63
2022/07/17 02:57:46;;;;;;;4.22;1.80;;;13.00;99.90;;;;;;5109349;28;20114;-64
2022/07/17 03:00:15;;;;;;;4.40;1.92;;;13.00;99.90;;;;;;5108382;28;20062;-63
2022/07/17 03:02:42;;;;;;;5.20;1.80;;;12.90;99.90;;;;;;5108432;28;20512;-63
2022/07/17 03:05:08;;;;;;;5.82;2.00;;;12.90;99.90;;;;;;5109230;28;20044;-63
2022/07/17 03:07:33;;;;;;;3.88;1.67;;;12.90;99.90;;;;;;5104050;28;20081;-63
2022/07/17 03:09:59;;;;;;;3.67;2.10;;;12.80;99.90;;;;;;5098473;28;20028;-63
2022/07/17 03:12:24;;;;;;;4.88;2.40;;;12.80;99.90;;;;;;5103901;28;20040;-63
2022/07/17 03:14:50;;;;;;;4.35;2.08;;;12.80;99.90;;;;;;5098183;28;20551;-64
2022/07/17 03:17:15;;;;;;;4.47;1.90;;;12.80;99.90;;;;;;5109774;28;20039;-63
2022/07/17 03:19:41;;;;;;;4.97;2.10;;;12.80;99.90;;;;;;5109159;28;20062;-63
2022/07/17 03:22:07;;;;;;;4.97;2.20;;;12.80;99.90;;;;;;5105778;28;20063;-63
2022/07/17 03:24:32;;;;;;;5.20;2.30;;;12.80;99.90;;;;;;5105090;28;20043;-64
2022/07/17 03:26:58;;;;;;;4.25;2.30;;;12.70;99.90;;;;;;5102852;28;20076;-63
2022/07/17 03:29:24;;;;;;;4.65;2.17;;;12.70;99.90;;;;;;5106951;28;20027;-63
2022/07/17 03:31:50;;;;;;;5.60;2.47;;;12.60;99.90;;;;;;5100762;28;20160;-64
2022/07/17 03:34:15;;;;;;;4.75;2.25;;;12.70;99.90;;;;;;5109147;28;20424;-63
2022/07/17 03:36:41;;;;;;;3.15;2.03;;;12.70;99.90;;;;;;5106905;28;20035;-63
2022/07/17 03:39:07;;;;;;;6.97;2.70;;;12.70;99.90;;;;;;5108813;28;20032;-64
2022/07/17 03:41:33;;;;;;;4.13;1.88;;;12.70;99.90;;;;;;5108781;28;20039;-63
2022/07/17 03:43:58;;;;;;;5.07;2.13;;;12.70;99.90;;;;;;5107801;28;20398;-63
2022/07/17 03:46:24;;;;;;;4.90;1.92;;;12.70;99.90;;;;;;5107962;28;20043;-63
2022/07/17 03:48:49;;;;;;;4.57;2.10;;;12.70;99.90;;;;;;5105791;28;20523;-63
2022/07/17 03:51:15;;;;;;;4.35;2.20;;;12.70;99.90;;;;;;5106667;28;20126;-63
2022/07/17 03:53:41;;;;;;;5.60;2.17;;;12.70;99.90;;;;;;5101824;28;20066;-64
2022/07/17 03:56:06;;;;;;;3.97;2.08;;;12.70;99.90;;;;;;5101437;28;20507;-63
2022/07/17 03:58:33;;;;;;;4.20;2.15;;;12.80;99.90;;;;;;5103615;28;20222;-63
2022/07/17 04:00:59;;;;;;;3.65;1.90;;;12.80;99.90;;;;;;5100168;28;20256;-63
2022/07/17 04:03:25;;;;;;;4.88;2.30;;;12.80;99.90;;;;;;5102891;28;20081;-64
2022/07/17 04:05:50;;;;;;;4.00;2.30;;;12.90;99.90;;;;;;5108578;28;20484;-63
2022/07/17 04:08:16;;;;;;;4.72;2.35;;;12.90;99.90;;;;;;5103972;28;20566;-63
2022/07/17 04:10:42;;;;;;;5.28;2.45;;;12.90;99.90;;;;;;5107465;28;20036;-64
2022/07/17 04:13:08;;;;;;;4.55;2.50;;;12.90;99.90;;;;;;5107073;28;20102;-64
2022/07/17 04:15:49;;;;;;;4.75;2.50;;;13.00;99.90;;;;;;5105876;28;20374;-64
2022/07/17 04:18:15;;;;;;;4.68;2.17;;;13.00;99.90;;;;;;5107950;28;20047;-63
2022/07/17 04:20:40;;;;;;;4.00;2.22;;;13.10;99.90;;;;;;5106368;28;20158;-64
2022/07/17 04:23:06;;;;;;;4.97;2.33;;;13.20;99.90;;;;;;5105724;28;20145;-63
2022/07/17 04:25:32;;;;;;;4.15;2.20;;;13.20;99.90;;;;;;5106823;28;20348;-64
2022/07/17 04:27:57;;;;;;;5.45;2.67;;;13.20;99.90;;;;;;5106368;28;20039;-65
2022/07/17 04:30:23;;;;;;;6.28;2.35;;;13.30;99.90;;;;;;5106467;28;20052;-64
2022/07/17 04:32:48;;;;;;;4.45;2.28;;;13.30;99.90;;;;;;5106406;28;20124;-64
2022/07/17 04:35:14;;;;;;;4.70;2.38;;;13.40;99.90;;;;;;5100618;28;20547;-64
2022/07/17 04:37:40;;;;;;;4.68;2.40;;;13.40;99.90;;;;;;5105170;28;20123;-64
2022/07/17 04:40:06;;;;;;;3.05;1.67;;;13.40;99.90;;;;;;5102740;28;20057;-67
2022/07/17 04:42:32;;;;;;;4.68;1.52;;;13.50;99.90;;;;;;5106596;28;20427;-67
2022/07/17 04:44:57;;;;;;;4.53;2.20;;;13.60;99.90;;;;;;5105850;28;20147;-66
2022/07/17 04:47:23;;;;;;;5.75;2.25;;;13.80;99.90;;;;;;5108137;28;20048;-66
2022/07/17 04:49:48;;;;;;;5.10;2.30;;;13.90;99.90;;;;;;5106186;28;20071;-66
2022/07/17 04:52:14;;;;;;;4.25;2.10;;;14.00;99.90;;;;;;5109427;28;20195;-66
2022/07/17 04:54:40;;;;;;;5.63;2.40;;;14.10;99.90;;;;;;5108555;28;20044;-66
2022/07/17 04:57:05;;;;;;;3.58;2.00;;;14.20;99.90;;;;;;5092915;28;20120;-66
2022/07/17 04:59:31;;;;;;;4.32;2.17;;;14.30;99.90;;;;;;5104891;28;20055;-66
2022/07/17 05:01:57;;;;;;;4.75;2.17;;;14.40;99.90;;;;;;5104451;28;20035;-67
2022/07/17 05:04:23;;;;;;;5.72;2.65;;;14.50;99.90;;;;;;5107973;28;20097;-67
2022/07/17 05:06:48;;;;;;;5.32;2.10;;;14.70;99.90;;;;;;5108488;28;20039;-65
2022/07/17 05:09:14;;;;;;;5.10;2.10;;;14.70;99.90;;;;;;5112078;28;20042;-66
2022/07/17 05:11:40;;;;;;;4.25;2.13;;;14.90;99.90;;;;;;5109297;28;20047;-66
2022/07/17 05:14:05;;;;;;;4.25;2.30;;;15.00;99.90;;;;;;5109955;28;20047;-66
2022/07/17 05:16:31;;;;;;;6.35;2.38;;;15.10;99.90;;;;;;5104978;28;20036;-66
2022/07/17 05:18:57;;;;;;;3.50;1.70;;;15.10;99.90;;;;;;5102968;28;20055;-66
2022/07/17 05:21:22;;;;;;;4.68;2.30;;;15.20;99.90;;;;;;5107546;28;20046;-67
2022/07/17 05:23:48;;;;;;;4.15;1.92;;;15.40;99.90;;;;;;5096402;28;20048;-66
2022/07/17 05:26:13;;;;;;;4.78;2.28;;;15.60;99.90;;;;;;5093238;28;20039;-67
2022/07/17 05:28:39;;;;;;;4.38;2.28;;;15.60;99.90;;;;;;5111481;28;20039;-66
2022/07/17 05:31:05;;;;;;;5.25;2.45;;;15.80;99.90;;;;;;5110294;28;20462;-66
2022/07/17 05:33:31;;;;;;;7.43;2.50;;;15.80;99.90;;;;;;5111221;28;20498;-67
2022/07/17 05:35:57;;;;;;;6.82;2.40;;;16.00;99.90;;;;;;5094211;28;20043;-66
2022/07/17 05:38:22;;;;;;;5.32;2.00;;;16.20;99.90;;;;;;5091692;28;20117;-67
2022/07/17 05:40:48;;;;;;;4.32;1.77;;;16.30;99.90;;;;;;5089402;28;20055;-67
2022/07/17 05:43:13;;;;;;;6.75;2.20;;;16.30;99.90;;;;;;5090580;28;20036;-66
2022/07/17 05:45:39;;;;;;;7.22;2.00;;;16.30;99.90;;;;;;5089851;28;20040;-68
2022/07/17 05:48:06;;;;;;;5.85;2.00;;;16.30;99.90;;;;;;5099856;27;20065;-66
2022/07/17 05:50:33;;;;;;;6.80;2.00;;;16.40;99.90;;;;;;5109076;28;20133;-67
2022/07/17 05:52:59;;;;;;;4.82;1.92;;;16.30;99.90;;;;;;5111673;28;20122;-66
2022/07/17 05:55:24;;;;;;;3.70;1.50;;;16.40;99.90;;;;;;5111799;28;20114;-67
2022/07/17 05:57:50;;;;;;;5.40;1.88;;;16.40;99.90;;;;;;5110479;28;20134;-67
2022/07/17 06:00:18;;;;;;;5.53;1.90;;;16.40;99.90;;;;;;5109553;28;20032;-66
2022/07/17 06:02:44;;;;;;;5.97;1.83;;;16.50;99.90;;;;;;5111051;28;20048;-66
2022/07/17 06:05:10;;;;;;;4.18;1.90;;;16.50;99.90;;;;;;5108376;28;20409;-66
2022/07/17 06:07:36;;;;;;;6.97;1.98;;;16.60;99.90;;;;;;5111818;28;20040;-66
2022/07/17 06:10:02;;;;;;;7.90;1.95;;;16.60;99.90;;;;;;5110011;28;20447;-67
2022/07/17 06:12:28;;;;;;;8.32;1.92;;;16.70;99.90;;;;;;5111191;28;20035;-67
2022/07/17 06:14:53;;;;;;;4.13;1.77;;;16.80;99.90;;;;;;5109575;28;20374;-67
2022/07/17 06:17:19;;;;;;;9.85;2.15;;;16.90;99.90;;;;;;5094333;28;20041;-67
2022/07/17 06:19:44;;;;;;;5.70;1.88;;;17.00;99.90;;;;;;5109155;28;20031;-67
2022/07/17 06:22:10;;;;;;;3.97;1.70;;;17.00;99.90;;;;;;5110691;28;20048;-66
2022/07/17 06:24:35;;;;;;;5.60;1.48;;;16.90;99.90;;;;;;5099803;28;20463;-67
2022/07/17 06:27:01;;;;;;;5.03;1.60;;;17.10;99.90;;;;;;5108734;28;20159;-66
2022/07/17 06:29:27;;;;;;;7.20;1.98;;;17.20;99.90;;;;;;5109306;28;20036;-67
2022/07/17 06:31:52;;;;;;;4.75;1.20;;;17.20;99.90;;;;;;5108274;28;20071;-67
2022/07/17 06:34:18;;;;;;;3.30;1.02;;;17.30;99.90;;;;;;5110734;28;20560;-66
2022/07/17 06:36:43;;;;;;;6.68;1.30;;;17.50;99.90;;;;;;5106168;28;20046;-65
2022/07/17 06:39:09;;;;;;;6.75;1.67;;;17.80;99.90;;;;;;5098738;28;20044;-64
2022/07/17 06:41:34;;;;;;;4.43;1.40;;;17.90;99.90;;;;;;5093933;28;20035;-65
2022/07/17 06:44:00;;;;;;;4.43;1.33;;;18.10;99.90;;;;;;5106953;28;20152;-66
2022/07/17 06:46:25;;;;;;;5.50;1.35;;;18.30;99.90;;;;;;5108652;28;20067;-66
2022/07/17 06:48:51;;;;;;;7.18;1.65;;;18.40;99.90;;;;;;5110173;28;20044;-66
2022/07/17 06:51:17;;;;;;;7.35;1.45;;;18.60;99.90;;;;;;5100948;28;20039;-66
2022/07/17 06:53:43;;;;;;;5.35;1.38;;;18.70;99.90;;;;;;5097456;28;20085;-67
2022/07/17 06:56:09;;;;;;;3.90;1.10;;;18.90;99.90;;;;;;5098153;28;20039;-68
2022/07/17 06:58:34;;;;;;;5.38;1.20;;;19.00;99.90;;;;;;5099957;28;20048;-68
2022/07/17 07:01:00;;;;;;;7.63;1.65;;;19.10;99.70;;;;;;5089897;28;20039;-68
2022/07/17 07:03:25;;;;;;;5.05;1.10;;;19.20;99.30;;;;;;5096227;28;20044;-68
2022/07/17 07:05:51;;;;;;;5.20;1.20;;;19.30;99.00;;;;;;5111552;28;20055;-67
2022/07/17 07:08:17;;;;;;;4.60;1.20;;;19.40;98.60;;;;;;5110317;28;20462;-67
2022/07/17 07:10:44;;;;;;;4.88;1.40;;;19.50;98.40;;;;;;5109482;27;20074;-65
2022/07/17 07:13:09;;;;;;;4.63;1.30;;;19.70;98.10;;;;;;5102123;28;20051;-65
2022/07/17 07:15:35;;;;;;;5.53;1.15;;;19.80;97.80;;;;;;5106510;28;20130;-65
2022/07/17 07:18:00;;;;;;;4.38;0.93;;;19.80;97.10;;;;;;5108152;28;20051;-66
2022/07/17 07:20:26;;;;;;;3.90;1.10;;;19.90;97.00;;;;;;5107403;28;20114;-65
2022/07/17 07:22:52;;;;;;;5.88;1.33;;;20.00;96.90;;;;;;5109971;27;20055;-65
2022/07/17 07:25:18;;;;;;;3.78;1.17;;;20.10;96.50;;;;;;5109297;28;20048;-65
2022/07/17 07:27:43;;;;;;;5.88;1.10;;;20.20;96.10;;;;;;5108502;28;20043;-66
2022/07/17 07:30:09;;;;;;;3.67;1.00;;;20.20;95.40;;;;;;5089802;28;20459;-66
2022/07/17 07:32:36;;;;;;;7.22;1.10;;;20.20;95.00;;;;;;5109236;28;20090;-66
2022/07/17 07:35:03;;;;;;;5.38;1.05;;;20.30;95.10;;;;;;5089570;28;20070;-65
2022/07/17 07:37:28;;;;;;;6.38;1.25;;;20.40;95.00;;;;;;5109399;28;20447;-66
2022/07/17 07:39:54;;;;;;;5.18;1.60;;;20.60;94.70;;;;;;5109633;28;20132;-66
2022/07/17 07:42:20;;;;;;;3.97;1.27;;;20.70;94.70;;;;;;5105464;28;20047;-66
2022/07/17 07:44:45;;;;;;;3.45;0.90;;;20.70;94.60;;;;;;5094529;28;20099;-66
2022/07/17 07:47:11;;;;;;;5.85;1.20;;;20.80;94.60;;;;;;5105994;28;20386;-66
2022/07/17 07:49:36;;;;;;;4.15;0.95;;;20.80;94.00;;;;;;5107742;28;20031;-65
2022/07/17 07:52:02;;;;;;;4.95;1.13;;;20.90;93.90;;;;;;5107243;28;20046;-66
2022/07/17 07:54:28;;;;;;;8.45;1.35;;;21.00;93.80;;;;;;5096033;28;20051;-66
2022/07/17 07:56:54;;;;;;;4.30;1.17;;;21.10;93.70;;;;;;5107605;28;20035;-66
2022/07/17 07:59:20;;;;;;;4.72;1.10;;;21.20;93.50;;;;;;5099258;28;20550;-66
2022/07/17 08:01:45;;;;;;;5.43;1.00;;;21.30;93.20;;;;;;5102781;28;20079;-63
2022/07/17 08:04:11;;;;;;;5.18;1.40;;;21.40;92.90;;;;;;5108924;28;20378;-63
2022/07/17 08:06:38;;;;;;;5.25;1.10;;;21.40;92.20;;;;;;5110293;28;20496;-63
2022/07/17 08:09:04;;;;;;;4.82;1.00;;;21.40;92.10;;;;;;5108807;28;20044;-64
2022/07/17 08:11:29;;;;;;;5.50;1.10;;;21.40;92.10;;;;;;5109362;28;20458;-64
2022/07/17 08:13:55;;;;;;;5.55;1.30;;;21.40;91.90;;;;;;5109760;28;20165;-63
2022/07/17 08:16:20;;;;;;;4.90;1.20;;;21.30;92.00;;;;;;5107583;28;20486;-64
2022/07/17 08:18:46;;;;;;;5.82;1.33;;;21.40;91.90;;;;;;5108181;28;20040;-64
2022/07/17 08:21:11;;;;;;;3.72;1.00;;;21.40;91.40;;;;;;5107950;28;20044;-64
2022/07/17 08:23:37;;;;;;;6.00;1.17;;;21.50;91.30;;;;;;5109307;28;20058;-64
2022/07/17 08:26:03;;;;;;;4.68;1.08;;;21.60;91.00;;;;;;5107507;28;20092;-64
2022/07/17 08:28:28;;;;;;;7.00;1.20;;;21.70;91.20;;;;;;5107399;28;20048;-64
2022/07/17 08:30:54;;;;;;;5.32;1.15;;;21.80;91.10;;;;;;5106473;28;20039;-64
2022/07/17 08:33:19;;;;;;;5.85;1.30;;;21.70;91.00;;;;;;5108470;28;20039;-64
2022/07/17 08:35:45;;;;;;;6.25;1.50;;;21.60;90.70;;;;;;5107939;28;20042;-63
2022/07/17 08:38:10;;;;;;;5.22;1.25;;;21.60;90.60;;;;;;5107588;28;20040;-63
2022/07/17 08:40:38;;;;;;;5.43;1.10;;;21.60;90.50;;;;;;5101698;28;20447;-63
2022/07/17 08:43:06;;;;;;;3.83;1.17;;;21.60;90.40;;;;;;5083144;28;20039;-64
2022/07/17 08:45:32;;;;;;;4.97;1.10;;;21.50;90.00;;;;;;5098469;28;20114;-63
2022/07/17 08:47:58;;;;;;;5.50;1.17;;;21.60;90.20;;;;;;5109238;28;20071;-62
2022/07/17 08:50:30;;;;;;;7.32;1.70;;;21.80;90.10;;;;;;5108380;28;20067;-63
2022/07/17 08:52:56;;;;;;;7.72;1.30;;;21.80;88.40;;;;;;5106135;28;20051;-63
2022/07/17 08:55:21;;;;;;;4.53;0.98;;;21.70;89.20;;;;;;5104965;28;20055;-63
2022/07/17 08:57:47;;;;;;;6.43;1.30;;;21.70;88.90;;;;;;5102131;28;20067;-63
2022/07/17 09:00:15;;;;;;;8.18;1.58;;;21.60;89.10;;;;;;5118454;28;20043;-63
2022/07/17 09:02:53;;;;;;;3.72;0.98;;;21.60;87.80;;;;;;5107726;28;20049;-63
2022/07/17 09:05:21;;;;;;;5.63;1.05;;;21.50;86.10;;;;;;5108097;28;20078;-63
2022/07/17 09:07:47;;;;;;;5.53;1.08;;;21.60;87.50;;;;;;5097164;28;20123;-62
2022/07/17 09:10:13;;;;;;;2.53;0.80;;;21.60;87.50;;;;;;5105516;28;20127;-63
2022/07/17 09:12:39;;;;;;;5.97;1.10;;;21.70;87.80;;;;;;5107107;28;20044;-62
2022/07/17 09:15:24;;;;;;;4.70;0.98;;;21.80;87.50;;;;;;5103347;28;20040;-63
2022/07/17 09:17:55;;;;;;;3.47;0.85;;;21.90;87.00;;;;;;5105060;28;20494;-63
2022/07/17 09:20:21;;;;;;;6.70;1.10;;;22.00;85.60;;;;;;5106098;28;20040;-62
2022/07/17 09:23:01;;;;;;;3.92;1.25;;;21.90;85.70;;;;;;5097539;28;20048;-63
2022/07/17 09:25:45;;;;;;;5.38;0.93;;;21.90;84.50;;;;;;5097048;28;20036;-65
2022/07/17 09:28:16;;;;;;;4.63;0.85;;;21.80;85.10;;;;;;5089628;28;20413;-66
2022/07/17 09:30:45;;;;;;;4.18;1.08;;;22.00;85.40;;;;;;5088524;28;20136;-66
2022/07/17 09:33:19;;;;;;;4.90;0.85;;;22.10;85.70;;;;;;5088685;28;20833;-65
2022/07/17 09:35:47;;;;;;;4.30;0.90;;;22.10;85.40;;;;;;5087337;28;20040;-66
2022/07/17 09:38:35;;;;;;;3.67;0.77;;;22.20;85.40;;;;;;5087731;28;20044;-66
2022/07/17 09:41:09;;;;;;;4.10;1.17;;;22.30;84.90;;;;;;5086708;28;20048;-66
2022/07/17 09:43:57;;;;;;;5.28;1.17;;;22.20;85.20;;;;;;5088034;28;20192;-65
2022/07/17 09:46:26;;;;;;;6.72;1.15;;;22.30;86.00;;;;;;5087909;28;20111;-66
2022/07/17 09:48:54;;;;;;;4.28;0.90;;;22.30;84.20;;;;;;5086754;28;20051;-65
2022/07/17 09:51:38;;;;;;;3.88;0.90;;;22.30;84.20;;;;;;5087532;28;20088;-67
2022/07/17 09:54:07;;;;;;;4.57;1.10;;;22.40;84.60;;;;;;5090691;28;20058;-66
2022/07/17 09:56:35;;;;;;;5.40;1.33;;;22.40;83.90;;;;;;5090193;28;20502;-66
2022/07/17 09:59:04;;;;;;;4.85;1.23;;;22.60;82.60;;;;;;5091031;28;20055;-66
2022/07/17 10:01:31;;;;;;;3.47;1.02;;;22.70;82.60;;;;;;5105302;28;20063;-65
2022/07/17 10:03:56;;;;;;;2.53;0.98;;;22.90;82.40;;;;;;5089855;28;20048;-66
2022/07/17 10:06:24;;;;;;;3.75;1.13;;;22.90;82.10;;;;;;5090872;28;20372;-66
2022/07/17 10:08:51;;;;;;;6.30;1.48;;;22.90;82.00;;;;;;5090526;28;20120;-66
2022/07/17 10:11:20;;;;;;;3.25;1.10;;;22.90;82.10;;;;;;5087945;28;20121;-66
2022/07/17 10:13:47;;;;;;;2.78;0.88;;;22.90;82.20;;;;;;5091465;28;20051;-66
2022/07/17 10:16:13;;;;;;;3.97;1.20;;;23.10;83.10;;;;;;5099045;28;20131;-67
2022/07/17 10:18:44;;;;;;;1.90;0.77;;;23.20;82.60;;;;;;5110207;28;20567;-66
2022/07/17 10:21:09;;;;;;;4.43;1.10;;;23.30;83.00;;;;;;5094054;28;20044;-66
2022/07/17 10:23:35;;;;;;;4.55;1.30;;;23.40;83.10;;;;;;5089506;28;20050;-66
2022/07/17 10:26:02;;;;;;;4.70;1.00;;;23.60;83.00;;;;;;5091805;28;20088;-66
2022/07/17 10:28:45;;;;;;;4.78;1.08;;;23.70;82.20;;;;;;5111445;28;20127;-66
2022/07/17 10:31:23;;;;;;;4.95;1.17;;;23.70;82.50;;;;;;5107302;28;20293;-66
2022/07/17 10:33:59;;;;;;;3.47;1.10;;;23.70;80.40;;;;;;5105513;28;20040;-66
2022/07/17 10:36:33;;;;;;;4.80;1.23;;;23.60;79.50;;;;;;5091154;28;20044;-65
2022/07/17 10:39:10;;;;;;;3.95;0.90;;;23.60;79.60;;;;;;5099796;28;20051;-66
2022/07/17 10:41:35;;;;;;;4.57;1.30;;;23.50;79.60;;;;;;5107758;28;20118;-65
2022/07/17 10:44:01;;;;;;;3.85;0.90;;;23.50;79.00;;;;;;5100336;28;20198;-66
2022/07/17 10:46:28;;;;;;;4.32;0.80;;;23.50;79.10;;;;;;5092800;28;20043;-66
2022/07/17 10:48:54;;;;;;;5.45;1.20;;;23.50;79.00;;;;;;5091473;28;20064;-66
2022/07/17 10:51:23;;;;;;;5.05;1.30;;;23.70;79.30;;;;;;5091186;28;20048;-67
2022/07/17 10:53:49;;;;;;;4.05;1.45;;;23.80;79.60;;;;;;5090739;28;20044;-66
2022/07/17 10:56:16;;;;;;;4.00;1.40;;;23.90;79.80;;;;;;5089522;28;20119;-65
2022/07/17 10:58:43;;;;;;;4.00;1.35;;;24.00;79.10;;;;;;5089103;28;20055;-67
2022/07/17 11:01:20;;;;;;;5.32;1.50;;;24.10;78.20;;;;;;5091064;28;20125;-65
2022/07/17 11:03:56;;;;;;;4.50;1.13;;;24.10;77.30;;;;;;5105352;28;20044;-66
2022/07/17 11:06:37;;;;;;;3.50;1.15;;;24.00;76.60;;;;;;5103138;28;20162;-65
2022/07/17 11:09:04;;;;;;;3.45;1.10;;;24.10;77.20;;;;;;5107906;28;20028;-66
2022/07/17 11:11:43;;;;;;;2.65;1.08;;;23.90;77.50;;;;;;5109711;28;20369;-67
2022/07/17 11:14:18;;;;;;;4.95;1.08;;;24.10;78.00;;;;;;5110250;28;20055;-68
2022/07/17 11:16:57;;;;;;;3.72;1.00;;;24.10;77.30;;;;;;5095424;28;20406;-67
2022/07/17 11:19:35;;;;;;;4.22;1.35;;;24.10;77.10;;;;;;5109627;28;20395;-66
2022/07/17 11:22:05;;;;;;;4.50;1.10;;;24.20;76.10;;;;;;5105931;27;20204;-67
2022/07/17 11:24:39;;;;;;;3.55;1.10;;;24.20;75.40;;;;;;5091916;28;20128;-66
2022/07/17 11:27:05;;;;;;;3.80;1.20;;;24.20;75.80;;;;;;5089408;28;20040;-64
2022/07/17 11:29:36;;;;;;;3.28;1.10;;;24.10;76.10;;;;;;5099147;28;20058;-64
2022/07/17 11:32:02;;;;;;;5.55;1.33;;;24.20;75.80;;;;;;5107872;27;20039;-65
2022/07/17 11:34:28;;;;;;;5.35;1.75;;;24.10;75.50;;;;;;5096424;27;20453;-65
2022/07/17 11:37:03;;;;;;;3.85;1.15;;;24.20;75.60;;;;;;5105251;28;20055;-65
2022/07/17 11:39:38;;;;;;;2.85;1.02;;;24.40;75.90;;;;;;5106405;28;20102;-65
2022/07/17 11:42:06;;;;;;;7.18;1.58;;;24.60;74.30;;;;;;5103123;28;20051;-65
2022/07/17 11:44:32;;;;;;;3.78;1.20;;;24.60;73.40;;;;;;5104351;28;20059;-65
2022/07/17 11:46:57;;;;;;;4.32;1.42;;;24.60;73.10;;;;;;5104220;28;20051;-64
2022/07/17 11:49:34;;;;;;;5.00;1.67;;;24.80;74.30;;;;;;5105382;28;20051;-64
2022/07/17 11:52:11;;;;;;;4.65;1.60;;;25.00;74.80;;;;;;5094362;28;20055;-64
2022/07/17 11:54:51;;;;;;;3.85;1.45;;;25.00;72.40;;;;;;5092434;28;20130;-64
2022/07/17 11:57:18;;;;;;;7.32;1.70;;;25.10;73.40;;;;;;5095985;28;20089;-65
2022/07/17 11:59:44;;;;;;;5.47;1.60;;;25.10;72.30;;;;;;5105410;28;20086;-64
2022/07/17 12:02:14;;;;;;;3.67;1.20;;;25.10;71.00;;;;;;5103822;28;20172;-67
2022/07/17 12:04:50;;;;;;;5.30;1.67;;;25.00;71.30;;;;;;5105119;28;20054;-67
2022/07/17 12:07:16;;;;;;;3.78;1.40;;;25.00;70.60;;;;;;5098207;28;20085;-67
2022/07/17 12:09:42;;;;;;;5.63;1.60;;;24.90;70.70;;;;;;5092938;28;20467;-63
2022/07/17 12:12:25;;;;;;;4.10;1.63;;;25.00;70.70;;;;;;5103863;28;20198;-64
2022/07/17 12:14:57;;;;;;;5.72;1.90;;;25.00;70.70;;;;;;5096074;28;20044;-64
2022/07/17 12:17:23;;;;;;;3.30;1.30;;;25.00;70.10;;;;;;5109162;28;20036;-62
2022/07/17 12:19:51;;;;;;;6.00;1.80;;;25.10;69.20;;;;;;5110802;27;20043;-64
2022/07/17 12:22:16;;;;;;;4.10;1.48;;;25.10;69.40;;;;;;5108520;28;20475;-64
2022/07/17 12:24:44;;;;;;;4.38;1.42;;;24.80;69.00;;;;;;5106896;28;20127;-64
2022/07/17 12:27:15;;;;;;;4.60;1.70;;;25.00;69.80;;;;;;5108229;28;20055;-64
2022/07/17 12:29:41;;;;;;;5.63;1.80;;;25.20;69.70;;;;;;5108794;28;20090;-64
2022/07/17 12:32:10;;;;;;;4.80;1.75;;;25.30;69.50;;;;;;5107092;28;20047;-64
2022/07/17 12:34:46;;;;;;;7.75;2.17;;;25.20;67.80;;;;;;5108626;28;20402;-64
2022/07/17 12:37:20;;;;;;;4.30;1.70;;;25.10;67.70;;;;;;5107125;28;20048;-64
2022/07/17 12:39:47;;;;;;;4.70;1.60;;;25.10;67.40;;;;;;5109347;28;20116;-62
2022/07/17 12:42:13;;;;;;;3.63;1.50;;;25.10;67.50;;;;;;5108244;28;20043;-62
2022/07/17 12:44:39;;;;;;;5.60;1.95;;;25.20;67.90;;;;;;5106293;28;20092;-62
2022/07/17 12:47:05;;;;;;;5.72;2.00;;;25.40;68.20;;;;;;5107507;28;20040;-61
2022/07/17 12:49:31;;;;;;;4.97;2.00;;;25.50;68.10;;;;;;5108830;28;20036;-62